createdAt,value
2017-05-30T00:02:04.727Z,99.90
2017-05-30T00:04:33.056Z,99.90
2017-05-30T00:07:01.410Z,99.90
2017-05-30T00:09:29.738Z,99.90
2017-05-30T00:11:58.857Z,99.90
2017-05-30T00:14:27.188Z,99.90
2017-05-30T00:16:55.559Z,99.90
2017-05-30T00:19:23.885Z,99.90
2017-05-30T00:21:52.975Z,99.90
2017-05-30T00:24:21.323Z,99.90
2017-05-30T00:26:49.629Z,99.90
2017-05-30T00:29:18.142Z,99.90
2017-05-30T00:31:47.263Z,99.90
2017-05-30T00:34:15.633Z,99.90
2017-05-30T00:36:43.988Z,99.90
2017-05-30T00:39:12.320Z,99.90
2017-05-30T00:41:41.429Z,99.90
2017-05-30T00:44:09.763Z,99.90
2017-05-30T00:46:38.102Z,99.90
2017-05-30T00:49:06.448Z,99.90
2017-05-30T00:51:35.549Z,99.90
2017-05-30T00:54:03.869Z,99.90
2017-05-30T00:56:32.225Z,99.90
2017-05-30T00:59:00.567Z,99.90
2017-05-30T01:01:29.691Z,99.90
2017-05-30T01:03:58.029Z,99.90
2017-05-30T01:06:27.112Z,99.90
2017-05-30T01:08:56.239Z,99.90
2017-05-30T01:11:24.563Z,99.90
2017-05-30T01:13:52.918Z,99.90
2017-05-30T01:16:21.259Z,99.90
2017-05-30T01:18:49.609Z,99.90
2017-05-30T01:21:18.754Z,99.90
2017-05-30T01:23:47.065Z,99.90
2017-05-30T01:26:15.621Z,99.90
2017-05-30T01:28:43.910Z,99.90
2017-05-30T01:31:13.028Z,99.90
2017-05-30T01:33:41.369Z,99.90
2017-05-30T01:36:09.713Z,99.90
2017-05-30T01:38:38.078Z,99.90
2017-05-30T01:41:07.160Z,99.90
2017-05-30T01:43:35.517Z,99.90
2017-05-30T01:46:03.881Z,99.90
2017-05-30T01:48:32.999Z,99.90
2017-05-30T01:51:02.100Z,99.90
2017-05-30T01:53:30.428Z,99.90
2017-05-30T01:55:58.786Z,99.90
2017-05-30T01:58:27.105Z,99.90
2017-05-30T02:00:55.460Z,99.90
2017-05-30T02:03:24.556Z,99.90
2017-05-30T02:05:52.918Z,99.90
2017-05-30T02:08:21.270Z,99.90
2017-05-30T02:10:50.354Z,99.90
2017-05-30T02:13:19.465Z,99.90
2017-05-30T02:15:47.789Z,99.90
2017-05-30T02:18:16.190Z,99.90
2017-05-30T02:20:44.525Z,99.90
2017-05-30T02:23:13.652Z,99.90
2017-05-30T02:25:41.985Z,99.90
2017-05-30T02:28:10.373Z,99.90
2017-05-30T02:30:38.723Z,99.90
2017-05-30T02:33:07.897Z,99.90
2017-05-30T02:35:36.251Z,99.90
2017-05-30T02:38:04.574Z,99.90
2017-05-30T02:40:32.918Z,99.90
2017-05-30T02:43:02.010Z,99.90
2017-05-30T02:45:30.352Z,99.90
2017-05-30T02:47:58.713Z,99.90
2017-05-30T02:50:27.047Z,99.90
2017-05-30T02:52:56.137Z,99.90
2017-05-30T02:55:24.477Z,99.90
2017-05-30T02:57:52.820Z,99.90
2017-05-30T03:00:21.198Z,99.90
2017-05-30T03:02:50.325Z,99.90
2017-05-30T03:05:18.718Z,99.90
2017-05-30T03:07:47.073Z,99.90
2017-05-30T03:10:15.488Z,99.90
2017-05-30T03:12:44.601Z,99.90
2017-05-30T03:15:13.751Z,99.90
2017-05-30T03:17:42.165Z,99.90
2017-05-30T03:20:10.501Z,99.90
2017-05-30T03:22:39.666Z,99.90
2017-05-30T03:25:08.001Z,99.90
2017-05-30T03:27:36.352Z,99.90
2017-05-30T03:30:04.677Z,99.90
2017-05-30T03:32:33.805Z,99.90
2017-05-30T03:35:02.131Z,99.90
2017-05-30T03:37:30.458Z,99.90
2017-05-30T03:39:58.800Z,99.90
2017-05-30T03:42:27.896Z,99.90
2017-05-30T03:44:56.267Z,99.90
2017-05-30T03:47:24.605Z,99.90
2017-05-30T03:49:52.969Z,99.90
2017-05-30T03:52:22.085Z,99.90
2017-05-30T03:54:50.502Z,99.90
2017-05-30T03:57:18.844Z,99.90
2017-05-30T03:59:47.937Z,99.90
2017-05-30T04:02:17.055Z,99.90
2017-05-30T04:04:46.157Z,99.90
2017-05-30T04:07:14.491Z,99.90
2017-05-30T04:09:42.850Z,99.90
2017-05-30T04:12:11.940Z,99.90
2017-05-30T04:14:40.289Z,99.90
2017-05-30T04:17:08.641Z,99.90
2017-05-30T04:19:36.973Z,99.90
2017-05-30T04:22:06.084Z,99.90
2017-05-30T04:24:34.434Z,99.90
2017-05-30T04:27:02.753Z,99.90
2017-05-30T04:29:31.845Z,99.90
2017-05-30T04:32:00.980Z,99.90
2017-05-30T04:34:30.078Z,99.90
2017-05-30T04:36:58.453Z,99.90
2017-05-30T04:39:26.781Z,99.90
2017-05-30T04:41:55.925Z,99.90
2017-05-30T04:44:24.260Z,99.90
2017-05-30T04:46:52.580Z,99.90
2017-05-30T04:49:20.937Z,99.90
2017-05-30T04:51:50.026Z,99.90
2017-05-30T04:54:18.348Z,99.90
2017-05-30T04:56:46.693Z,99.90
2017-05-30T04:59:15.069Z,99.90
2017-05-30T05:01:44.159Z,99.90
2017-05-30T05:04:12.474Z,99.90
2017-05-30T05:06:40.821Z,99.90
2017-05-30T05:09:09.150Z,99.90
2017-05-30T05:11:38.274Z,99.90
2017-05-30T05:14:06.598Z,99.90
2017-05-30T05:16:35.058Z,99.90
2017-05-30T05:19:03.382Z,99.90
2017-05-30T05:21:32.478Z,99.90
2017-05-30T05:24:00.833Z,99.90
2017-05-30T05:26:29.946Z,99.90
2017-05-30T05:28:58.270Z,99.90
2017-05-30T05:31:27.399Z,99.90
2017-05-30T05:33:55.725Z,99.90
2017-05-30T05:36:24.049Z,99.90
2017-05-30T05:38:52.399Z,99.90
2017-05-30T05:41:21.533Z,99.90
2017-05-30T05:43:49.853Z,99.90
2017-05-30T05:46:18.233Z,99.90
2017-05-30T05:48:46.562Z,99.90
2017-05-30T05:51:15.812Z,99.90
2017-05-30T05:53:44.153Z,99.90
2017-05-30T05:56:12.472Z,99.90
2017-05-30T05:58:40.829Z,99.90
2017-05-30T06:01:09.920Z,99.90
2017-05-30T06:03:38.324Z,99.90
2017-05-30T06:06:07.399Z,99.90
2017-05-30T06:08:35.729Z,99.90
2017-05-30T06:11:04.847Z,99.90
2017-05-30T06:13:33.177Z,99.90
2017-05-30T06:16:01.514Z,99.90
2017-05-30T06:18:29.890Z,99.90
2017-05-30T06:20:58.852Z,99.90
2017-05-30T06:23:27.989Z,99.90
2017-05-30T06:25:56.340Z,99.90
2017-05-30T06:28:24.685Z,99.90
2017-05-30T06:30:53.785Z,99.90
2017-05-30T06:33:22.896Z,99.90
2017-05-30T06:35:51.226Z,99.90
2017-05-30T06:38:19.605Z,99.90
2017-05-30T06:40:47.952Z,99.90
2017-05-30T06:43:17.035Z,99.90
2017-05-30T06:45:45.378Z,99.90
2017-05-30T06:48:13.717Z,99.90
2017-05-30T06:50:42.064Z,99.90
2017-05-30T06:53:11.165Z,99.90
2017-05-30T06:55:39.545Z,99.90
2017-05-30T06:58:07.876Z,99.90
2017-05-30T07:00:36.205Z,99.90
2017-05-30T07:03:05.326Z,99.90
2017-05-30T07:05:33.645Z,99.90
2017-05-30T07:08:02.114Z,99.90
2017-05-30T07:10:30.425Z,99.90
2017-05-30T07:12:59.603Z,99.90
2017-05-30T07:15:27.946Z,99.90
2017-05-30T07:17:56.267Z,99.90
2017-05-30T07:20:24.620Z,99.90
2017-05-30T07:22:53.709Z,99.90
2017-05-30T07:25:22.046Z,99.90
2017-05-30T07:27:50.390Z,99.90
2017-05-30T07:30:19.478Z,99.90
2017-05-30T07:32:48.598Z,99.90
2017-05-30T07:35:16.931Z,99.90
2017-05-30T07:37:45.279Z,99.90
2017-05-30T07:40:13.648Z,99.90
2017-05-30T07:42:42.723Z,99.90
2017-05-30T07:45:11.894Z,99.90
2017-05-30T07:47:40.216Z,99.90
2017-05-30T07:50:09.474Z,99.90
2017-05-30T07:52:38.764Z,99.90
2017-05-30T07:55:07.095Z,99.90
2017-05-30T07:57:35.447Z,99.90
2017-05-30T08:00:03.783Z,99.90
2017-05-30T08:02:32.899Z,99.90
2017-05-30T08:05:01.798Z,99.90
2017-05-30T08:07:30.144Z,99.90
2017-05-30T08:09:58.510Z,99.90
2017-05-30T08:12:27.640Z,99.90
2017-05-30T08:14:56.137Z,99.90
2017-05-30T08:17:24.515Z,99.90
2017-05-30T08:19:52.980Z,99.90
2017-05-30T08:22:22.112Z,99.90
2017-05-30T08:24:50.477Z,99.90
2017-05-30T08:27:19.101Z,99.90
2017-05-30T08:29:47.546Z,99.90
2017-05-30T08:32:16.689Z,99.90
2017-05-30T08:34:45.037Z,98.70
2017-05-30T08:37:13.393Z,99.90
2017-05-30T08:39:41.742Z,99.90
2017-05-30T08:42:10.897Z,99.90
2017-05-30T08:44:39.346Z,99.90
2017-05-30T08:47:07.689Z,99.10
2017-05-30T08:49:36.085Z,99.90
2017-05-30T08:52:05.222Z,99.90
2017-05-30T08:54:33.757Z,99.90
2017-05-30T08:57:02.132Z,99.60
2017-05-30T08:59:30.454Z,99.40
2017-05-30T09:01:59.774Z,99.30
2017-05-30T09:04:28.131Z,99.30
2017-05-30T09:06:56.490Z,98.80
2017-05-30T09:09:24.866Z,99.20
2017-05-30T09:11:53.997Z,98.60
2017-05-30T09:14:22.380Z,98.60
2017-05-30T09:16:50.784Z,99.20
2017-05-30T09:19:19.135Z,99.80
2017-05-30T09:21:48.254Z,98.80
2017-05-30T09:24:17.132Z,98.80
2017-05-30T09:26:45.511Z,98.10
2017-05-30T09:29:13.891Z,98.90
2017-05-30T09:31:43.039Z,97.80
2017-05-30T09:34:11.384Z,97.80
2017-05-30T09:36:39.781Z,99.40
2017-05-30T09:39:08.150Z,99.50
2017-05-30T09:41:37.628Z,98.00
2017-05-30T09:44:05.996Z,98.00
2017-05-30T09:46:34.332Z,97.40
2017-05-30T09:49:02.679Z,98.00
2017-05-30T09:51:31.800Z,96.60
2017-05-30T09:54:00.190Z,96.50
2017-05-30T09:56:28.529Z,97.50
2017-05-30T09:58:56.855Z,97.30
2017-05-30T10:01:25.988Z,94.70
2017-05-30T10:03:54.339Z,94.70
2017-05-30T10:06:23.486Z,94.50
2017-05-30T10:08:51.845Z,94.60
2017-05-30T10:11:20.985Z,94.20
2017-05-30T10:13:49.329Z,94.20
2017-05-30T10:16:18.465Z,94.20
2017-05-30T10:18:47.539Z,94.20
2017-05-30T10:21:16.656Z,95.50
2017-05-30T10:23:45.028Z,95.50
2017-05-30T10:26:13.355Z,95.40
2017-05-30T10:28:41.707Z,96.00
2017-05-30T10:31:10.817Z,94.80
2017-05-30T10:33:39.264Z,94.80
2017-05-30T10:36:07.609Z,94.00
2017-05-30T10:38:36.007Z,94.30
2017-05-30T10:41:05.121Z,93.70
2017-05-30T10:43:33.450Z,93.70
2017-05-30T10:46:01.844Z,94.50
2017-05-30T10:48:30.178Z,93.90
2017-05-30T10:50:59.300Z,93.20
2017-05-30T10:53:28.433Z,93.60
2017-05-30T10:55:56.768Z,93.60
2017-05-30T10:58:25.113Z,94.20
2017-05-30T11:00:53.446Z,93.90
2017-05-30T11:03:22.590Z,93.30
2017-05-30T11:05:50.933Z,93.30
2017-05-30T11:08:20.023Z,93.30
2017-05-30T11:10:48.375Z,93.60
2017-05-30T11:13:17.450Z,94.30
2017-05-30T11:15:46.602Z,94.30
2017-05-30T11:18:14.975Z,94.40
2017-05-30T11:20:43.323Z,94.90
2017-05-30T11:23:12.785Z,93.70
2017-05-30T11:25:41.125Z,93.90
2017-05-30T11:28:09.451Z,93.90
2017-05-30T11:30:37.797Z,93.40
2017-05-30T11:33:07.005Z,92.80
2017-05-30T11:35:35.324Z,92.70
2017-05-30T11:38:03.671Z,93.00
2017-05-30T11:40:32.769Z,93.00
2017-05-30T11:43:01.897Z,92.80
2017-05-30T11:45:31.025Z,93.00
2017-05-30T11:47:59.403Z,93.00
2017-05-30T11:50:27.785Z,93.00
2017-05-30T11:52:56.963Z,93.00
2017-05-30T11:55:26.063Z,92.90
2017-05-30T11:57:54.377Z,92.90
2017-05-30T12:00:22.725Z,92.30
2017-05-30T12:02:51.812Z,90.00
2017-05-30T12:05:20.953Z,88.10
2017-05-30T12:07:50.098Z,86.80
2017-05-30T12:10:19.189Z,85.00
2017-05-30T12:12:48.287Z,85.40
2017-05-30T12:15:16.604Z,85.20
2017-05-30T12:17:45.461Z,85.70
2017-05-30T12:20:13.813Z,86.40
2017-05-30T12:22:42.896Z,84.00
2017-05-30T12:25:11.248Z,84.10
2017-05-30T12:27:39.563Z,80.50
2017-05-30T12:30:07.916Z,82.40
2017-05-30T12:32:36.994Z,90.50
2017-05-30T12:35:05.332Z,90.50
2017-05-30T12:37:33.685Z,91.30
2017-05-30T12:40:02.047Z,93.70
2017-05-30T12:42:31.176Z,97.80
2017-05-30T12:44:59.618Z,95.80
2017-05-30T12:47:28.293Z,95.80
2017-05-30T12:49:56.618Z,94.70
2017-05-30T12:52:25.705Z,93.80
2017-05-30T12:54:54.188Z,93.80
2017-05-30T12:57:23.276Z,93.30
2017-05-30T12:59:51.779Z,93.30
2017-05-30T13:02:20.898Z,94.80
2017-05-30T13:04:49.991Z,94.30
2017-05-30T13:07:18.320Z,94.30
2017-05-30T13:09:46.674Z,94.10
2017-05-30T13:12:15.907Z,92.40
2017-05-30T13:14:44.984Z,91.10
2017-05-30T13:17:13.307Z,91.10
2017-05-30T13:19:41.661Z,90.50
2017-05-30T13:22:10.757Z,90.60
2017-05-30T13:24:39.113Z,90.60
2017-05-30T13:27:07.444Z,90.10
2017-05-30T13:29:36.560Z,91.10
2017-05-30T13:32:05.641Z,91.80
2017-05-30T13:34:33.993Z,91.80
2017-05-30T13:37:02.327Z,92.30
2017-05-30T13:39:30.665Z,91.90
2017-05-30T13:41:59.778Z,90.80
2017-05-30T13:44:28.865Z,90.10
2017-05-30T13:46:57.233Z,90.10
2017-05-30T13:49:25.553Z,87.70
2017-05-30T13:51:54.661Z,84.90
2017-05-30T13:54:22.984Z,84.70
2017-05-30T13:56:51.329Z,83.30
2017-05-30T13:59:20.433Z,87.30
2017-05-30T14:01:49.549Z,86.90
2017-05-30T14:04:17.902Z,86.80
2017-05-30T14:06:46.236Z,87.00
2017-05-30T14:09:14.593Z,88.00
2017-05-30T14:11:43.693Z,88.90
2017-05-30T14:14:12.051Z,88.90
2017-05-30T14:16:40.373Z,86.00
2017-05-30T14:19:08.724Z,83.70
2017-05-30T14:21:37.823Z,87.60
2017-05-30T14:24:06.191Z,87.70
2017-05-30T14:26:34.535Z,84.80
2017-05-30T14:29:02.900Z,84.60
2017-05-30T14:31:32.026Z,86.40
2017-05-30T14:34:01.130Z,88.30
2017-05-30T14:36:29.607Z,88.40
2017-05-30T14:38:57.922Z,90.30
2017-05-30T14:41:27.384Z,92.00
2017-05-30T14:43:56.496Z,92.50
2017-05-30T14:46:24.826Z,92.40
2017-05-30T14:48:53.178Z,92.60
2017-05-30T14:51:22.283Z,91.90
2017-05-30T14:53:51.409Z,92.20
2017-05-30T14:56:19.745Z,92.10
2017-05-30T14:58:48.098Z,92.50
2017-05-30T15:01:17.224Z,93.50
2017-05-30T15:03:46.359Z,92.90
2017-05-30T15:06:14.713Z,92.90
2017-05-30T15:08:43.051Z,93.40
2017-05-30T15:11:12.164Z,92.60
2017-05-30T15:13:40.486Z,92.50
2017-05-30T15:16:09.616Z,92.30
2017-05-30T15:18:37.962Z,92.40
2017-05-30T15:21:07.047Z,91.40
2017-05-30T15:23:35.384Z,91.40
2017-05-30T15:26:03.718Z,92.20
2017-05-30T15:28:32.065Z,91.60
2017-05-30T15:31:01.278Z,91.70
2017-05-30T15:33:30.392Z,92.40
2017-05-30T15:35:58.843Z,92.20
2017-05-30T15:38:27.985Z,92.70
2017-05-30T15:40:57.693Z,92.60
2017-05-30T15:43:27.620Z,91.60
2017-05-30T15:45:55.966Z,91.60
2017-05-30T15:48:24.317Z,92.30
2017-05-30T15:50:52.672Z,93.20
2017-05-30T15:53:21.765Z,93.30
2017-05-30T15:55:50.241Z,93.30
2017-05-30T15:58:18.569Z,92.70
2017-05-30T16:00:46.926Z,92.60
2017-05-30T16:03:16.038Z,93.40
2017-05-30T16:05:44.365Z,93.40
2017-05-30T16:08:12.693Z,93.10
2017-05-30T16:10:41.160Z,92.90
2017-05-30T16:13:11.237Z,93.80
2017-05-30T16:15:39.620Z,93.80
2017-05-30T16:18:08.665Z,94.40
2017-05-30T16:20:37.120Z,94.90
2017-05-30T16:23:06.294Z,96.20
2017-05-30T16:25:34.716Z,96.20
2017-05-30T16:28:03.829Z,97.50
2017-05-30T16:30:32.291Z,97.50
2017-05-30T16:33:02.247Z,97.70
2017-05-30T16:35:31.603Z,97.70
2017-05-30T16:37:59.954Z,97.50
2017-05-30T16:40:29.065Z,96.50
2017-05-30T16:42:58.255Z,97.20
2017-05-30T16:45:26.593Z,97.20
2017-05-30T16:47:55.035Z,97.50
2017-05-30T16:50:23.395Z,97.30
2017-05-30T16:52:52.505Z,98.00
2017-05-30T16:55:21.091Z,97.90
2017-05-30T16:57:49.433Z,98.00
2017-05-30T17:00:17.813Z,97.30
2017-05-30T17:02:47.005Z,96.80
2017-05-30T17:05:15.389Z,96.80
2017-05-30T17:07:43.833Z,96.40
2017-05-30T17:10:12.189Z,96.20
2017-05-30T17:12:41.338Z,96.40
2017-05-30T17:15:10.554Z,96.50
2017-05-30T17:17:38.946Z,96.50
2017-05-30T17:20:07.314Z,96.20
2017-05-30T17:22:36.251Z,95.70
2017-05-30T17:25:04.377Z,95.70
2017-05-30T17:27:33.662Z,95.80
2017-05-30T17:30:01.982Z,95.00
2017-05-30T17:32:31.129Z,94.80
2017-05-30T17:34:59.474Z,94.80
2017-05-30T17:37:27.897Z,94.70
2017-05-30T17:39:56.238Z,95.10
2017-05-30T17:42:25.353Z,94.70
2017-05-30T17:44:53.678Z,94.70
2017-05-30T17:47:22.042Z,95.30
2017-05-30T17:49:50.373Z,95.10
2017-05-30T17:52:20.272Z,95.40
2017-05-30T17:54:48.606Z,95.40
2017-05-30T17:57:17.122Z,95.50
2017-05-30T17:59:45.550Z,96.00
2017-05-30T18:02:14.647Z,95.90
2017-05-30T18:04:43.022Z,95.90
2017-05-30T18:07:11.367Z,95.70
2017-05-30T18:09:39.697Z,96.00
2017-05-30T18:12:08.841Z,96.40
2017-05-30T18:14:37.906Z,96.30
2017-05-30T18:17:06.280Z,96.80
2017-05-30T18:19:34.621Z,96.80
2017-05-30T18:22:03.750Z,97.10
2017-05-30T18:24:32.122Z,97.00
2017-05-30T18:27:00.483Z,97.10
2017-05-30T18:29:28.825Z,97.40
2017-05-30T18:32:03.683Z,97.20
2017-05-30T18:34:32.105Z,97.20
2017-05-30T18:37:00.449Z,97.10
2017-05-30T18:39:29.576Z,96.50
2017-05-30T18:41:58.750Z,96.70
2017-05-30T18:44:27.087Z,96.40
2017-05-30T18:46:55.445Z,96.60
2017-05-30T18:49:23.787Z,96.50
2017-05-30T18:51:52.917Z,96.70
2017-05-30T18:54:21.298Z,96.70
2017-05-30T18:56:49.644Z,96.50
2017-05-30T18:59:18.014Z,96.80
2017-05-30T19:01:47.120Z,96.80
2017-05-30T19:04:16.317Z,97.00
2017-05-30T19:06:44.683Z,97.00
2017-05-30T19:09:13.106Z,97.20
2017-05-30T19:11:42.310Z,97.20
2017-05-30T19:14:10.633Z,97.20
2017-05-30T19:16:42.849Z,97.00
2017-05-30T19:19:11.169Z,96.80
2017-05-30T19:21:40.297Z,96.60
2017-05-30T19:24:08.625Z,96.60
2017-05-30T19:26:37.162Z,96.60
2017-05-30T19:29:05.485Z,96.70
2017-05-30T19:31:34.582Z,97.20
2017-05-30T19:34:02.950Z,97.20
2017-05-30T19:36:31.312Z,97.50
2017-05-30T19:38:59.657Z,97.50
2017-05-30T19:41:28.770Z,97.60
2017-05-30T19:43:57.168Z,97.50
2017-05-30T19:46:25.526Z,97.80
2017-05-30T19:48:53.878Z,98.00
2017-05-30T19:51:22.948Z,98.30
2017-05-30T19:53:52.213Z,98.10
2017-05-30T19:56:20.570Z,98.10
2017-05-30T19:58:48.911Z,97.70
2017-05-30T20:01:18.009Z,97.80
2017-05-30T20:03:46.375Z,97.80
2017-05-30T20:06:14.693Z,97.40
2017-05-30T20:08:43.072Z,97.20
2017-05-30T20:11:12.162Z,96.80
2017-05-30T20:13:40.517Z,96.80
2017-05-30T20:16:08.868Z,96.90
2017-05-30T20:18:37.215Z,96.70
2017-05-30T20:21:06.361Z,96.70
2017-05-30T20:23:34.897Z,96.50
2017-05-30T20:26:03.281Z,96.50
2017-05-30T20:28:31.609Z,96.80
2017-05-30T20:31:00.845Z,96.20
2017-05-30T20:33:29.937Z,96.20
2017-05-30T20:35:58.304Z,96.20
2017-05-30T20:38:27.225Z,96.20
2017-05-30T20:40:55.607Z,96.70
2017-05-30T20:43:24.726Z,96.40
2017-05-30T20:45:53.037Z,96.30
2017-05-30T20:48:21.386Z,96.30
2017-05-30T20:50:49.921Z,96.30
2017-05-30T20:53:19.012Z,96.10
2017-05-30T20:55:47.434Z,96.10
2017-05-30T20:58:15.789Z,96.20
2017-05-30T21:00:44.146Z,96.60
2017-05-30T21:03:13.224Z,97.00
2017-05-30T21:05:41.638Z,97.00
2017-05-30T21:08:09.970Z,97.00
2017-05-30T21:10:39.111Z,97.30
2017-05-30T21:13:08.221Z,97.30
2017-05-30T21:15:36.569Z,97.20
2017-05-30T21:18:04.924Z,97.60
2017-05-30T21:20:33.267Z,97.80
2017-05-30T21:23:02.410Z,98.10
2017-05-30T21:25:30.728Z,98.10
2017-05-30T21:27:59.119Z,98.20
2017-05-30T21:30:27.480Z,98.30
2017-05-30T21:32:56.604Z,98.70
2017-05-30T21:35:29.496Z,98.90
2017-05-30T21:37:58.172Z,98.90
2017-05-30T21:40:26.502Z,98.90
2017-05-30T21:42:54.817Z,99.20
2017-05-30T21:45:23.170Z,99.30
2017-05-30T21:47:51.505Z,99.60
2017-05-30T21:50:20.609Z,99.90
2017-05-30T21:52:49.740Z,99.90
2017-05-30T21:55:23.125Z,99.90
2017-05-30T21:57:51.548Z,99.90
2017-05-30T22:00:19.894Z,99.90
2017-05-30T22:02:49.009Z,99.90
2017-05-30T22:05:17.337Z,99.90
2017-05-30T22:07:45.699Z,99.90
2017-05-30T22:10:14.037Z,99.90
2017-05-30T22:12:43.130Z,99.90
2017-05-30T22:15:11.497Z,99.90
2017-05-30T22:17:39.827Z,99.90
2017-05-30T22:20:08.155Z,99.90
2017-05-30T22:22:37.293Z,99.90
2017-05-30T22:25:05.634Z,99.90
2017-05-30T22:27:33.959Z,99.90
2017-05-30T22:30:02.297Z,99.90
2017-05-30T22:32:31.420Z,99.90
2017-05-30T22:35:00.937Z,99.90
2017-05-30T22:37:29.295Z,99.90
2017-05-30T22:39:57.649Z,99.90
2017-05-30T22:42:26.770Z,99.90
2017-05-30T22:44:55.125Z,99.90
2017-05-30T22:47:24.221Z,99.90
2017-05-30T22:49:52.554Z,99.90
2017-05-30T22:52:21.670Z,99.90
2017-05-30T22:54:50.033Z,99.90
2017-05-30T22:57:18.364Z,99.90
2017-05-30T22:59:46.716Z,99.90
2017-05-30T23:02:15.833Z,99.90
2017-05-30T23:04:44.181Z,99.90
2017-05-30T23:07:12.537Z,99.90
2017-05-30T23:09:40.865Z,99.90
2017-05-30T23:12:09.987Z,99.90
2017-05-30T23:14:38.305Z,99.90
2017-05-30T23:17:06.673Z,99.90
2017-05-30T23:19:35.004Z,99.90
2017-05-30T23:22:04.123Z,99.90
2017-05-30T23:24:32.450Z,99.90
2017-05-30T23:27:00.815Z,99.90
2017-05-30T23:29:29.183Z,99.90
2017-05-30T23:31:58.263Z,99.90
2017-05-30T23:34:26.725Z,99.90
2017-05-30T23:36:55.089Z,99.90
2017-05-30T23:39:23.451Z,99.90
2017-05-30T23:41:52.625Z,99.90
2017-05-30T23:44:20.948Z,99.90
2017-05-30T23:46:49.304Z,99.90
2017-05-30T23:49:17.644Z,99.90
2017-05-30T23:51:46.748Z,99.90
2017-05-30T23:54:15.084Z,99.90
2017-05-30T23:56:44.528Z,99.90
2017-05-30T23:59:13.626Z,99.90
